sensor_id;sensor_type;location;lat;lon;timestamp;P1;durP1;ratioP1;P2;durP2;ratioP2
29688;SDS011;16600;47.444;8.334;2022-11-20T00:01:52;5.82;;;3.53;;
29688;SDS011;16600;47.444;8.334;2022-11-20T00:04:18;4.07;;;3.05;;
29688;SDS011;16600;47.444;8.334;2022-11-20T00:06:44;8.50;;;4.07;;
29688;SDS011;16600;47.444;8.334;2022-11-20T00:11:36;5.47;;;3.25;;
29688;SDS011;16600;47.444;8.334;2022-11-20T00:14:02;7.57;;;3.58;;
29688;SDS011;16600;47.444;8.334;2022-11-20T00:16:29;7.05;;;3.40;;
29688;SDS011;16600;47.444;8.334;2022-11-20T00:18:56;4.38;;;2.95;;
29688;SDS011;16600;47.444;8.334;2022-11-20T00:21:23;4.50;;;2.78;;
29688;SDS011;16600;47.444;8.334;2022-11-20T00:23:49;3.00;;;2.40;;
29688;SDS011;16600;47.444;8.334;2022-11-20T00:26:18;6.72;;;3.05;;
29688;SDS011;16600;47.444;8.334;2022-11-20T00:28:48;5.40;;;3.53;;
29688;SDS011;16600;47.444;8.334;2022-11-20T00:31:15;4.05;;;2.63;;
29688;SDS011;16600;47.444;8.334;2022-11-20T00:33:42;7.82;;;3.40;;
29688;SDS011;16600;47.444;8.334;2022-11-20T00:36:09;6.72;;;3.00;;
29688;SDS011;16600;47.444;8.334;2022-11-20T00:38:36;5.78;;;3.80;;
29688;SDS011;16600;47.444;8.334;2022-11-20T00:41:04;6.95;;;3.53;;
29688;SDS011;16600;47.444;8.334;2022-11-20T00:43:31;4.43;;;3.35;;
29688;SDS011;16600;47.444;8.334;2022-11-20T00:45:57;5.80;;;3.67;;
29688;SDS011;16600;47.444;8.334;2022-11-20T00:48:24;3.50;;;2.88;;
29688;SDS011;16600;47.444;8.334;2022-11-20T00:50:50;5.53;;;3.83;;
29688;SDS011;16600;47.444;8.334;2022-11-20T00:53:16;5.38;;;3.78;;
29688;SDS011;16600;47.444;8.334;2022-11-20T00:55:57;8.90;;;4.00;;
29688;SDS011;16600;47.444;8.334;2022-11-20T00:58:24;7.15;;;4.80;;
29688;SDS011;16600;47.444;8.334;2022-11-20T01:00:50;5.40;;;4.50;;
29688;SDS011;16600;47.444;8.334;2022-11-20T01:03:17;4.90;;;4.43;;
29688;SDS011;16600;47.444;8.334;2022-11-20T01:05:43;6.32;;;4.20;;
29688;SDS011;16600;47.444;8.334;2022-11-20T01:08:09;6.97;;;3.72;;
29688;SDS011;16600;47.444;8.334;2022-11-20T01:10:36;5.07;;;3.63;;
29688;SDS011;16600;47.444;8.334;2022-11-20T01:13:02;5.70;;;2.97;;
29688;SDS011;16600;47.444;8.334;2022-11-20T01:15:47;4.15;;;3.15;;
29688;SDS011;16600;47.444;8.334;2022-11-20T01:20:38;4.15;;;3.08;;
29688;SDS011;16600;47.444;8.334;2022-11-20T01:23:04;5.25;;;3.80;;
29688;SDS011;16600;47.444;8.334;2022-11-20T01:25:30;5.75;;;3.63;;
29688;SDS011;16600;47.444;8.334;2022-11-20T01:30:22;6.90;;;4.15;;
29688;SDS011;16600;47.444;8.334;2022-11-20T01:32:48;6.05;;;3.88;;
29688;SDS011;16600;47.444;8.334;2022-11-20T01:37:40;3.63;;;3.13;;
29688;SDS011;16600;47.444;8.334;2022-11-20T01:40:06;4.53;;;2.85;;
29688;SDS011;16600;47.444;8.334;2022-11-20T01:42:32;3.72;;;2.67;;
29688;SDS011;16600;47.444;8.334;2022-11-20T01:48:01;3.15;;;2.53;;
29688;SDS011;16600;47.444;8.334;2022-11-20T01:50:27;5.82;;;2.30;;
29688;SDS011;16600;47.444;8.334;2022-11-20T01:53:00;9.38;;;2.33;;
29688;SDS011;16600;47.444;8.334;2022-11-20T01:55:32;2.53;;;2.05;;
29688;SDS011;16600;47.444;8.334;2022-11-20T01:57:59;22.30;;;2.30;;
29688;SDS011;16600;47.444;8.334;2022-11-20T02:00:26;4.15;;;1.98;;
29688;SDS011;16600;47.444;8.334;2022-11-20T02:05:27;11.07;;;1.80;;
29688;SDS011;16600;47.444;8.334;2022-11-20T02:07:54;3.25;;;1.85;;
29688;SDS011;16600;47.444;8.334;2022-11-20T02:10:21;7.85;;;2.35;;
29688;SDS011;16600;47.444;8.334;2022-11-20T02:15:32;1.75;;;1.60;;
29688;SDS011;16600;47.444;8.334;2022-11-20T02:17:58;2.53;;;1.67;;
29688;SDS011;16600;47.444;8.334;2022-11-20T02:25:39;5.85;;;2.05;;
29688;SDS011;16600;47.444;8.334;2022-11-20T02:28:07;3.28;;;2.20;;
29688;SDS011;16600;47.444;8.334;2022-11-20T02:30:33;2.92;;;2.10;;
29688;SDS011;16600;47.444;8.334;2022-11-20T02:32:59;3.58;;;1.75;;
29688;SDS011;16600;47.444;8.334;2022-11-20T02:37:52;4.43;;;1.73;;
29688;SDS011;16600;47.444;8.334;2022-11-20T02:40:19;2.35;;;1.88;;
29688;SDS011;16600;47.444;8.334;2022-11-20T02:45:11;1.85;;;1.45;;
29688;SDS011;16600;47.444;8.334;2022-11-20T02:47:39;3.42;;;1.98;;
29688;SDS011;16600;47.444;8.334;2022-11-20T02:52:31;6.05;;;1.88;;
29688;SDS011;16600;47.444;8.334;2022-11-20T02:57:23;2.92;;;1.88;;
29688;SDS011;16600;47.444;8.334;2022-11-20T03:02:14;10.07;;;2.38;;
29688;SDS011;16600;47.444;8.334;2022-11-20T03:07:07;6.18;;;1.90;;
29688;SDS011;16600;47.444;8.334;2022-11-20T03:09:33;4.22;;;2.25;;
29688;SDS011;16600;47.444;8.334;2022-11-20T03:14:24;4.78;;;2.00;;
29688;SDS011;16600;47.444;8.334;2022-11-20T03:19:16;4.00;;;2.03;;
29688;SDS011;16600;47.444;8.334;2022-11-20T03:21:45;4.57;;;1.83;;
29688;SDS011;16600;47.444;8.334;2022-11-20T03:24:12;4.45;;;2.10;;
29688;SDS011;16600;47.444;8.334;2022-11-20T03:26:38;2.15;;;1.77;;
29688;SDS011;16600;47.444;8.334;2022-11-20T03:29:04;4.18;;;1.85;;
29688;SDS011;16600;47.444;8.334;2022-11-20T03:31:32;4.47;;;1.92;;
29688;SDS011;16600;47.444;8.334;2022-11-20T03:33:58;2.78;;;1.85;;
29688;SDS011;16600;47.444;8.334;2022-11-20T03:36:24;2.30;;;2.05;;
29688;SDS011;16600;47.444;8.334;2022-11-20T03:38:50;3.30;;;1.88;;
29688;SDS011;16600;47.444;8.334;2022-11-20T03:41:17;3.13;;;2.00;;
29688;SDS011;16600;47.444;8.334;2022-11-20T03:43:49;2.30;;;2.03;;
29688;SDS011;16600;47.444;8.334;2022-11-20T03:46:15;3.72;;;2.13;;
29688;SDS011;16600;47.444;8.334;2022-11-20T03:48:41;3.92;;;1.88;;
29688;SDS011;16600;47.444;8.334;2022-11-20T03:51:12;7.38;;;2.15;;
29688;SDS011;16600;47.444;8.334;2022-11-20T03:53:40;4.80;;;2.40;;
29688;SDS011;16600;47.444;8.334;2022-11-20T03:56:06;2.40;;;1.80;;
29688;SDS011;16600;47.444;8.334;2022-11-20T03:58:33;2.92;;;2.28;;
29688;SDS011;16600;47.444;8.334;2022-11-20T04:01:04;2.40;;;2.10;;
29688;SDS011;16600;47.444;8.334;2022-11-20T04:03:30;3.13;;;2.03;;
29688;SDS011;16600;47.444;8.334;2022-11-20T04:06:00;4.65;;;2.15;;
29688;SDS011;16600;47.444;8.334;2022-11-20T04:08:27;3.63;;;1.88;;
29688;SDS011;16600;47.444;8.334;2022-11-20T04:10:53;2.78;;;1.73;;
29688;SDS011;16600;47.444;8.334;2022-11-20T04:15:45;4.43;;;2.20;;
29688;SDS011;16600;47.444;8.334;2022-11-20T04:18:11;4.38;;;2.50;;
29688;SDS011;16600;47.444;8.334;2022-11-20T04:20:37;2.47;;;2.05;;
29688;SDS011;16600;47.444;8.334;2022-11-20T04:25:29;6.00;;;2.58;;
29688;SDS011;16600;47.444;8.334;2022-11-20T04:30:21;5.50;;;2.40;;
29688;SDS011;16600;47.444;8.334;2022-11-20T04:35:12;2.25;;;2.05;;
29688;SDS011;16600;47.444;8.334;2022-11-20T04:40:04;4.38;;;2.60;;
29688;SDS011;16600;47.444;8.334;2022-11-20T04:42:30;3.75;;;2.45;;
29688;SDS011;16600;47.444;8.334;2022-11-20T04:44:56;4.45;;;2.30;;
29688;SDS011;16600;47.444;8.334;2022-11-20T04:47:22;4.28;;;2.60;;
29688;SDS011;16600;47.444;8.334;2022-11-20T04:52:14;2.95;;;2.38;;
29688;SDS011;16600;47.444;8.334;2022-11-20T04:57:06;2.42;;;2.20;;
29688;SDS011;16600;47.444;8.334;2022-11-20T05:03:02;4.60;;;2.50;;
29688;SDS011;16600;47.444;8.334;2022-11-20T05:05:28;3.30;;;2.80;;
29688;SDS011;16600;47.444;8.334;2022-11-20T05:07:57;6.05;;;3.05;;
29688;SDS011;16600;47.444;8.334;2022-11-20T05:10:24;2.80;;;2.55;;
29688;SDS011;16600;47.444;8.334;2022-11-20T05:12:50;7.55;;;2.95;;
29688;SDS011;16600;47.444;8.334;2022-11-20T05:17:46;6.45;;;3.08;;
29688;SDS011;16600;47.444;8.334;2022-11-20T05:20:12;5.38;;;2.55;;
29688;SDS011;16600;47.444;8.334;2022-11-20T05:22:38;2.30;;;2.10;;
29688;SDS011;16600;47.444;8.334;2022-11-20T05:27:30;5.07;;;2.80;;
29688;SDS011;16600;47.444;8.334;2022-11-20T05:29:56;5.15;;;2.53;;
29688;SDS011;16600;47.444;8.334;2022-11-20T05:32:25;5.13;;;3.03;;
29688;SDS011;16600;47.444;8.334;2022-11-20T05:34:52;3.97;;;2.58;;
29688;SDS011;16600;47.444;8.334;2022-11-20T05:37:18;2.65;;;2.45;;
29688;SDS011;16600;47.444;8.334;2022-11-20T05:39:44;4.15;;;2.20;;
29688;SDS011;16600;47.444;8.334;2022-11-20T05:44:53;3.00;;;2.65;;
29688;SDS011;16600;47.444;8.334;2022-11-20T05:47:22;4.72;;;2.90;;
29688;SDS011;16600;47.444;8.334;2022-11-20T05:52:14;4.40;;;2.28;;
29688;SDS011;16600;47.444;8.334;2022-11-20T05:54:41;5.07;;;3.10;;
29688;SDS011;16600;47.444;8.334;2022-11-20T05:57:07;5.97;;;3.15;;
29688;SDS011;16600;47.444;8.334;2022-11-20T06:01:58;3.45;;;2.67;;
29688;SDS011;16600;47.444;8.334;2022-11-20T06:04:24;5.13;;;3.00;;
29688;SDS011;16600;47.444;8.334;2022-11-20T06:09:16;3.40;;;2.35;;
29688;SDS011;16600;47.444;8.334;2022-11-20T06:11:42;5.07;;;2.22;;
29688;SDS011;16600;47.444;8.334;2022-11-20T06:14:08;3.90;;;2.03;;
29688;SDS011;16600;47.444;8.334;2022-11-20T06:16:34;2.92;;;2.03;;
29688;SDS011;16600;47.444;8.334;2022-11-20T06:19:00;5.65;;;2.08;;
29688;SDS011;16600;47.444;8.334;2022-11-20T06:23:52;2.85;;;1.73;;
29688;SDS011;16600;47.444;8.334;2022-11-20T06:26:19;3.88;;;2.40;;
29688;SDS011;16600;47.444;8.334;2022-11-20T06:28:46;2.40;;;2.03;;
29688;SDS011;16600;47.444;8.334;2022-11-20T06:31:13;3.88;;;2.55;;
29688;SDS011;16600;47.444;8.334;2022-11-20T06:33:40;3.50;;;2.25;;
29688;SDS011;16600;47.444;8.334;2022-11-20T06:36:09;3.47;;;2.70;;
29688;SDS011;16600;47.444;8.334;2022-11-20T06:38:36;4.60;;;2.40;;
29688;SDS011;16600;47.444;8.334;2022-11-20T06:41:10;4.60;;;2.25;;
29688;SDS011;16600;47.444;8.334;2022-11-20T06:43:37;8.70;;;2.50;;
29688;SDS011;16600;47.444;8.334;2022-11-20T06:46:06;3.50;;;2.70;;
29688;SDS011;16600;47.444;8.334;2022-11-20T06:48:32;2.92;;;2.53;;
29688;SDS011;16600;47.444;8.334;2022-11-20T06:50:58;4.00;;;2.55;;
29688;SDS011;16600;47.444;8.334;2022-11-20T06:55:50;20.38;;;4.85;;
29688;SDS011;16600;47.444;8.334;2022-11-20T06:58:16;2.67;;;2.47;;
29688;SDS011;16600;47.444;8.334;2022-11-20T07:00:45;5.70;;;3.10;;
29688;SDS011;16600;47.444;8.334;2022-11-20T07:05:40;3.63;;;2.95;;
29688;SDS011;16600;47.444;8.334;2022-11-20T07:08:09;5.70;;;2.88;;
29688;SDS011;16600;47.444;8.334;2022-11-20T07:10:35;3.50;;;2.85;;
29688;SDS011;16600;47.444;8.334;2022-11-20T07:13:01;3.10;;;2.42;;
29688;SDS011;16600;47.444;8.334;2022-11-20T07:15:27;3.40;;;2.67;;
29688;SDS011;16600;47.444;8.334;2022-11-20T07:17:59;3.95;;;2.33;;
29688;SDS011;16600;47.444;8.334;2022-11-20T07:20:25;2.25;;;2.03;;
29688;SDS011;16600;47.444;8.334;2022-11-20T07:22:55;3.20;;;2.15;;
29688;SDS011;16600;47.444;8.334;2022-11-20T07:25:21;4.88;;;2.08;;
29688;SDS011;16600;47.444;8.334;2022-11-20T07:27:47;3.30;;;2.30;;
29688;SDS011;16600;47.444;8.334;2022-11-20T07:30:14;4.28;;;3.08;;
29688;SDS011;16600;47.444;8.334;2022-11-20T07:32:44;2.30;;;2.03;;
29688;SDS011;16600;47.444;8.334;2022-11-20T07:35:11;3.05;;;1.98;;
29688;SDS011;16600;47.444;8.334;2022-11-20T07:37:38;2.45;;;2.22;;
29688;SDS011;16600;47.444;8.334;2022-11-20T07:40:04;2.83;;;2.13;;
29688;SDS011;16600;47.444;8.334;2022-11-20T07:42:30;3.10;;;2.30;;
29688;SDS011;16600;47.444;8.334;2022-11-20T07:44:56;3.50;;;2.33;;
29688;SDS011;16600;47.444;8.334;2022-11-20T07:47:22;4.18;;;2.20;;
29688;SDS011;16600;47.444;8.334;2022-11-20T07:49:51;3.20;;;2.17;;
29688;SDS011;16600;47.444;8.334;2022-11-20T07:54:42;5.57;;;1.95;;
29688;SDS011;16600;47.444;8.334;2022-11-20T07:59:34;4.72;;;2.13;;
29688;SDS011;16600;47.444;8.334;2022-11-20T08:04:26;1.85;;;1.42;;
29688;SDS011;16600;47.444;8.334;2022-11-20T08:06:52;3.63;;;1.75;;
29688;SDS011;16600;47.444;8.334;2022-11-20T08:09:18;2.50;;;1.77;;
29688;SDS011;16600;47.444;8.334;2022-11-20T08:14:28;7.47;;;1.90;;
29688;SDS011;16600;47.444;8.334;2022-11-20T08:19:20;1.55;;;1.45;;
29688;SDS011;16600;47.444;8.334;2022-11-20T08:24:12;4.60;;;1.77;;
29688;SDS011;16600;47.444;8.334;2022-11-20T08:29:03;2.55;;;1.85;;
29688;SDS011;16600;47.444;8.334;2022-11-20T08:31:30;4.47;;;1.80;;
29688;SDS011;16600;47.444;8.334;2022-11-20T08:33:56;3.67;;;1.60;;
29688;SDS011;16600;47.444;8.334;2022-11-20T08:36:22;3.00;;;1.80;;
29688;SDS011;16600;47.444;8.334;2022-11-20T08:38:49;2.17;;;1.50;;
29688;SDS011;16600;47.444;8.334;2022-11-20T08:41:15;1.83;;;1.50;;
29688;SDS011;16600;47.444;8.334;2022-11-20T08:44:00;3.50;;;1.90;;
29688;SDS011;16600;47.444;8.334;2022-11-20T08:46:30;4.88;;;1.40;;
29688;SDS011;16600;47.444;8.334;2022-11-20T08:48:58;2.80;;;1.80;;
29688;SDS011;16600;47.444;8.334;2022-11-20T08:53:50;2.65;;;1.52;;
29688;SDS011;16600;47.444;8.334;2022-11-20T08:56:18;1.40;;;1.08;;
29688;SDS011;16600;47.444;8.334;2022-11-20T08:58:44;2.47;;;1.60;;
29688;SDS011;16600;47.444;8.334;2022-11-20T09:03:39;2.20;;;1.27;;
29688;SDS011;16600;47.444;8.334;2022-11-20T09:06:06;1.95;;;1.60;;
29688;SDS011;16600;47.444;8.334;2022-11-20T09:08:33;1.40;;;1.27;;
29688;SDS011;16600;47.444;8.334;2022-11-20T09:10:59;2.95;;;1.48;;
29688;SDS011;16600;47.444;8.334;2022-11-20T09:15:54;1.52;;;1.42;;
29688;SDS011;16600;47.444;8.334;2022-11-20T09:18:20;2.15;;;1.90;;
29688;SDS011;16600;47.444;8.334;2022-11-20T09:20:47;1.55;;;1.35;;
29688;SDS011;16600;47.444;8.334;2022-11-20T09:23:13;1.52;;;1.40;;
29688;SDS011;16600;47.444;8.334;2022-11-20T09:25:39;1.80;;;1.23;;
29688;SDS011;16600;47.444;8.334;2022-11-20T09:28:06;2.05;;;1.52;;
29688;SDS011;16600;47.444;8.334;2022-11-20T09:30:32;1.88;;;1.30;;
29688;SDS011;16600;47.444;8.334;2022-11-20T09:35:23;2.00;;;1.27;;
29688;SDS011;16600;47.444;8.334;2022-11-20T09:37:49;3.60;;;1.77;;
29688;SDS011;16600;47.444;8.334;2022-11-20T09:42:47;3.15;;;1.75;;
29688;SDS011;16600;47.444;8.334;2022-11-20T09:55:33;1.85;;;1.55;;
29688;SDS011;16600;47.444;8.334;2022-11-20T09:58:00;4.10;;;1.70;;
29688;SDS011;16600;47.444;8.334;2022-11-20T10:00:27;2.22;;;1.48;;
29688;SDS011;16600;47.444;8.334;2022-11-20T10:03:01;2.40;;;1.25;;
29688;SDS011;16600;47.444;8.334;2022-11-20T10:05:35;2.65;;;1.73;;
29688;SDS011;16600;47.444;8.334;2022-11-20T10:10:44;1.48;;;1.20;;
29688;SDS011;16600;47.444;8.334;2022-11-20T10:18:31;2.58;;;1.60;;
29688;SDS011;16600;47.444;8.334;2022-11-20T10:21:07;3.58;;;1.80;;
29688;SDS011;16600;47.444;8.334;2022-11-20T10:26:31;1.60;;;1.50;;
29688;SDS011;16600;47.444;8.334;2022-11-20T10:29:06;3.05;;;1.17;;
29688;SDS011;16600;47.444;8.334;2022-11-20T10:31:36;3.22;;;1.50;;
29688;SDS011;16600;47.444;8.334;2022-11-20T10:34:05;2.55;;;1.95;;
29688;SDS011;16600;47.444;8.334;2022-11-20T10:36:36;3.13;;;1.60;;
29688;SDS011;16600;47.444;8.334;2022-11-20T10:39:14;9.60;;;1.20;;
29688;SDS011;16600;47.444;8.334;2022-11-20T10:41:44;2.28;;;1.27;;
29688;SDS011;16600;47.444;8.334;2022-11-20T10:44:26;1.52;;;1.13;;
29688;SDS011;16600;47.444;8.334;2022-11-20T10:47:17;1.92;;;1.33;;
29688;SDS011;16600;47.444;8.334;2022-11-20T10:49:45;1.98;;;1.55;;
29688;SDS011;16600;47.444;8.334;2022-11-20T10:57:56;1.88;;;1.33;;
29688;SDS011;16600;47.444;8.334;2022-11-20T11:03:07;1.33;;;1.20;;
29688;SDS011;16600;47.444;8.334;2022-11-20T11:05:46;1.50;;;1.38;;
29688;SDS011;16600;47.444;8.334;2022-11-20T11:08:15;3.00;;;1.00;;
29688;SDS011;16600;47.444;8.334;2022-11-20T11:10:56;1.60;;;1.10;;
29688;SDS011;16600;47.444;8.334;2022-11-20T11:13:26;3.80;;;1.40;;
29688;SDS011;16600;47.444;8.334;2022-11-20T11:15:52;3.80;;;1.50;;
29688;SDS011;16600;47.444;8.334;2022-11-20T11:18:25;1.48;;;1.15;;
29688;SDS011;16600;47.444;8.334;2022-11-20T11:20:52;1.90;;;1.15;;
29688;SDS011;16600;47.444;8.334;2022-11-20T11:25:58;1.33;;;1.20;;
29688;SDS011;16600;47.444;8.334;2022-11-20T11:28:24;1.33;;;1.20;;
29688;SDS011;16600;47.444;8.334;2022-11-20T11:30:53;2.25;;;1.02;;
29688;SDS011;16600;47.444;8.334;2022-11-20T11:33:26;1.90;;;1.45;;
29688;SDS011;16600;47.444;8.334;2022-11-20T11:36:01;1.98;;;1.20;;
29688;SDS011;16600;47.444;8.334;2022-11-20T11:38:35;2.00;;;1.73;;
29688;SDS011;16600;47.444;8.334;2022-11-20T11:41:02;1.70;;;0.98;;
29688;SDS011;16600;47.444;8.334;2022-11-20T11:43:30;6.15;;;1.60;;
29688;SDS011;16600;47.444;8.334;2022-11-20T11:46:29;3.67;;;1.10;;
29688;SDS011;16600;47.444;8.334;2022-11-20T11:51:50;2.28;;;1.45;;
29688;SDS011;16600;47.444;8.334;2022-11-20T11:54:28;1.40;;;1.13;;
29688;SDS011;16600;47.444;8.334;2022-11-20T11:56:57;3.75;;;1.42;;
29688;SDS011;16600;47.444;8.334;2022-11-20T11:59:43;1.25;;;1.05;;
29688;SDS011;16600;47.444;8.334;2022-11-20T12:02:15;1.77;;;1.10;;
29688;SDS011;16600;47.444;8.334;2022-11-20T12:04:54;1.92;;;1.20;;
29688;SDS011;16600;47.444;8.334;2022-11-20T12:09:54;2.38;;;1.50;;
29688;SDS011;16600;47.444;8.334;2022-11-20T12:12:25;2.42;;;1.15;;
29688;SDS011;16600;47.444;8.334;2022-11-20T12:14:56;8.30;;;2.00;;
29688;SDS011;16600;47.444;8.334;2022-11-20T12:17:23;2.50;;;1.48;;
29688;SDS011;16600;47.444;8.334;2022-11-20T12:19:49;3.15;;;1.42;;
29688;SDS011;16600;47.444;8.334;2022-11-20T12:22:19;2.33;;;1.90;;
29688;SDS011;16600;47.444;8.334;2022-11-20T12:24:55;2.20;;;1.30;;
29688;SDS011;16600;47.444;8.334;2022-11-20T12:35:37;6.03;;;3.85;;
29688;SDS011;16600;47.444;8.334;2022-11-20T12:42:58;2.30;;;1.48;;
29688;SDS011;16600;47.444;8.334;2022-11-20T12:50:40;1.92;;;1.25;;
29688;SDS011;16600;47.444;8.334;2022-11-20T12:58:39;11.30;;;3.25;;
29688;SDS011;16600;47.444;8.334;2022-11-20T13:06:49;5.78;;;2.78;;
29688;SDS011;16600;47.444;8.334;2022-11-20T13:09:16;4.13;;;1.48;;
29688;SDS011;16600;47.444;8.334;2022-11-20T13:17:02;2.40;;;1.25;;
29688;SDS011;16600;47.444;8.334;2022-11-20T13:19:31;2.17;;;1.23;;
29688;SDS011;16600;47.444;8.334;2022-11-20T13:21:58;1.98;;;1.25;;
29688;SDS011;16600;47.444;8.334;2022-11-20T13:24:25;1.40;;;1.00;;
29688;SDS011;16600;47.444;8.334;2022-11-20T13:29:34;1.27;;;1.17;;
29688;SDS011;16600;47.444;8.334;2022-11-20T13:32:12;2.17;;;1.20;;
29688;SDS011;16600;47.444;8.334;2022-11-20T13:34:39;1.83;;;1.20;;
29688;SDS011;16600;47.444;8.334;2022-11-20T13:37:32;1.58;;;0.98;;
29688;SDS011;16600;47.444;8.334;2022-11-20T13:40:11;3.53;;;1.17;;
29688;SDS011;16600;47.444;8.334;2022-11-20T13:42:45;1.63;;;1.20;;
29688;SDS011;16600;47.444;8.334;2022-11-20T13:45:21;2.17;;;1.25;;
29688;SDS011;16600;47.444;8.334;2022-11-20T13:47:48;1.17;;;0.73;;
29688;SDS011;16600;47.444;8.334;2022-11-20T13:50:15;1.58;;;1.25;;
29688;SDS011;16600;47.444;8.334;2022-11-20T14:00:50;3.75;;;1.80;;
29688;SDS011;16600;47.444;8.334;2022-11-20T14:03:18;1.83;;;1.27;;
29688;SDS011;16600;47.444;8.334;2022-11-20T14:05:54;2.45;;;1.65;;
29688;SDS011;16600;47.444;8.334;2022-11-20T14:08:26;2.28;;;1.25;;
29688;SDS011;16600;47.444;8.334;2022-11-20T14:11:02;5.50;;;1.50;;
29688;SDS011;16600;47.444;8.334;2022-11-20T14:13:28;1.35;;;0.93;;
29688;SDS011;16600;47.444;8.334;2022-11-20T14:18:20;3.20;;;1.27;;
29688;SDS011;16600;47.444;8.334;2022-11-20T14:20:47;2.30;;;1.25;;
29688;SDS011;16600;47.444;8.334;2022-11-20T14:23:22;3.60;;;1.40;;
29688;SDS011;16600;47.444;8.334;2022-11-20T14:25:48;9.93;;;1.50;;
29688;SDS011;16600;47.444;8.334;2022-11-20T14:30:43;4.88;;;1.67;;
29688;SDS011;16600;47.444;8.334;2022-11-20T14:33:10;1.70;;;1.60;;
29688;SDS011;16600;47.444;8.334;2022-11-20T14:35:40;2.35;;;1.50;;
29688;SDS011;16600;47.444;8.334;2022-11-20T14:38:11;1.60;;;1.20;;
29688;SDS011;16600;47.444;8.334;2022-11-20T14:40:38;6.47;;;1.20;;
29688;SDS011;16600;47.444;8.334;2022-11-20T14:43:27;2.22;;;1.40;;
29688;SDS011;16600;47.444;8.334;2022-11-20T14:46:02;1.47;;;1.27;;
29688;SDS011;16600;47.444;8.334;2022-11-20T14:48:31;1.65;;;1.17;;
29688;SDS011;16600;47.444;8.334;2022-11-20T14:50:58;5.47;;;1.45;;
29688;SDS011;16600;47.444;8.334;2022-11-20T14:53:24;5.70;;;1.58;;
29688;SDS011;16600;47.444;8.334;2022-11-20T14:55:56;2.50;;;1.48;;
29688;SDS011;16600;47.444;8.334;2022-11-20T14:58:23;3.13;;;1.48;;
29688;SDS011;16600;47.444;8.334;2022-11-20T15:01:05;2.30;;;1.60;;
29688;SDS011;16600;47.444;8.334;2022-11-20T15:03:37;3.50;;;1.48;;
29688;SDS011;16600;47.444;8.334;2022-11-20T15:06:04;1.98;;;1.45;;
29688;SDS011;16600;47.444;8.334;2022-11-20T15:08:31;2.15;;;1.60;;
29688;SDS011;16600;47.444;8.334;2022-11-20T15:10:57;3.78;;;2.22;;
29688;SDS011;16600;47.444;8.334;2022-11-20T15:13:29;5.35;;;2.88;;
29688;SDS011;16600;47.444;8.334;2022-11-20T15:15:55;6.28;;;2.90;;
29688;SDS011;16600;47.444;8.334;2022-11-20T15:18:29;3.85;;;2.85;;
29688;SDS011;16600;47.444;8.334;2022-11-20T15:20:56;8.52;;;2.75;;
29688;SDS011;16600;47.444;8.334;2022-11-20T15:23:23;6.13;;;2.30;;
29688;SDS011;16600;47.444;8.334;2022-11-20T15:25:49;6.28;;;3.38;;
29688;SDS011;16600;47.444;8.334;2022-11-20T15:28:16;7.03;;;4.70;;
29688;SDS011;16600;47.444;8.334;2022-11-20T15:30:44;4.82;;;3.50;;
29688;SDS011;16600;47.444;8.334;2022-11-20T15:33:10;3.53;;;2.30;;
29688;SDS011;16600;47.444;8.334;2022-11-20T15:35:39;4.18;;;2.72;;
29688;SDS011;16600;47.444;8.334;2022-11-20T15:38:05;8.40;;;3.05;;
29688;SDS011;16600;47.444;8.334;2022-11-20T15:40:31;2.75;;;2.47;;
29688;SDS011;16600;47.444;8.334;2022-11-20T15:42:58;3.10;;;2.60;;
29688;SDS011;16600;47.444;8.334;2022-11-20T15:45:36;3.15;;;2.75;;
29688;SDS011;16600;47.444;8.334;2022-11-20T15:48:04;6.40;;;3.55;;
29688;SDS011;16600;47.444;8.334;2022-11-20T15:50:34;2.10;;;1.90;;
29688;SDS011;16600;47.444;8.334;2022-11-20T15:53:01;2.22;;;2.03;;
29688;SDS011;16600;47.444;8.334;2022-11-20T15:55:28;4.25;;;2.83;;
29688;SDS011;16600;47.444;8.334;2022-11-20T16:00:19;5.60;;;4.57;;
29688;SDS011;16600;47.444;8.334;2022-11-20T16:05:11;5.28;;;4.03;;
29688;SDS011;16600;47.444;8.334;2022-11-20T16:07:37;3.40;;;2.33;;
29688;SDS011;16600;47.444;8.334;2022-11-20T16:12:29;3.42;;;1.80;;
29688;SDS011;16600;47.444;8.334;2022-11-20T16:15:13;4.45;;;2.50;;
29688;SDS011;16600;47.444;8.334;2022-11-20T16:17:58;3.13;;;2.83;;
29688;SDS011;16600;47.444;8.334;2022-11-20T16:22:50;2.88;;;1.63;;
29688;SDS011;16600;47.444;8.334;2022-11-20T16:25:16;2.50;;;1.70;;
29688;SDS011;16600;47.444;8.334;2022-11-20T16:30:08;3.20;;;2.22;;
29688;SDS011;16600;47.444;8.334;2022-11-20T16:32:34;3.90;;;2.45;;
29688;SDS011;16600;47.444;8.334;2022-11-20T16:37:26;4.10;;;2.45;;
29688;SDS011;16600;47.444;8.334;2022-11-20T16:39:52;10.23;;;2.45;;
29688;SDS011;16600;47.444;8.334;2022-11-20T16:44:45;4.68;;;2.25;;
29688;SDS011;16600;47.444;8.334;2022-11-20T16:47:14;3.95;;;2.78;;
29688;SDS011;16600;47.444;8.334;2022-11-20T16:49:43;6.93;;;3.50;;
29688;SDS011;16600;47.444;8.334;2022-11-20T16:52:10;9.30;;;3.42;;
29688;SDS011;16600;47.444;8.334;2022-11-20T16:57:01;9.38;;;4.45;;
29688;SDS011;16600;47.444;8.334;2022-11-20T16:59:27;11.68;;;5.60;;
29688;SDS011;16600;47.444;8.334;2022-11-20T17:03:01;36.07;;;20.77;;
29688;SDS011;16600;47.444;8.334;2022-11-20T17:05:31;28.23;;;17.20;;
29688;SDS011;16600;47.444;8.334;2022-11-20T17:07:57;35.58;;;17.88;;
29688;SDS011;16600;47.444;8.334;2022-11-20T17:12:48;9.75;;;4.93;;
29688;SDS011;16600;47.444;8.334;2022-11-20T17:17:40;4.72;;;3.67;;
29688;SDS011;16600;47.444;8.334;2022-11-20T17:20:06;10.13;;;7.80;;
29688;SDS011;16600;47.444;8.334;2022-11-20T17:22:33;8.95;;;5.60;;
29688;SDS011;16600;47.444;8.334;2022-11-20T17:24:59;9.02;;;5.10;;
29688;SDS011;16600;47.444;8.334;2022-11-20T17:27:27;6.65;;;4.65;;
29688;SDS011;16600;47.444;8.334;2022-11-20T17:29:54;8.43;;;5.70;;
29688;SDS011;16600;47.444;8.334;2022-11-20T17:32:22;5.93;;;4.53;;
29688;SDS011;16600;47.444;8.334;2022-11-20T17:34:48;8.25;;;5.07;;
29688;SDS011;16600;47.444;8.334;2022-11-20T17:37:14;10.48;;;5.15;;
29688;SDS011;16600;47.444;8.334;2022-11-20T17:39:40;14.52;;;7.28;;
29688;SDS011;16600;47.444;8.334;2022-11-20T17:42:09;11.05;;;6.53;;
29688;SDS011;16600;47.444;8.334;2022-11-20T17:44:54;7.35;;;5.28;;
29688;SDS011;16600;47.444;8.334;2022-11-20T17:47:21;8.65;;;6.50;;
29688;SDS011;16600;47.444;8.334;2022-11-20T17:49:47;9.90;;;7.63;;
29688;SDS011;16600;47.444;8.334;2022-11-20T17:52:13;11.13;;;5.72;;
29688;SDS011;16600;47.444;8.334;2022-11-20T17:57:05;6.65;;;3.80;;
29688;SDS011;16600;47.444;8.334;2022-11-20T17:59:49;6.72;;;3.20;;
29688;SDS011;16600;47.444;8.334;2022-11-20T18:04:44;5.78;;;3.78;;
29688;SDS011;16600;47.444;8.334;2022-11-20T18:07:10;6.97;;;3.13;;
29688;SDS011;16600;47.444;8.334;2022-11-20T18:09:39;6.15;;;3.47;;
29688;SDS011;16600;47.444;8.334;2022-11-20T18:14:31;2.97;;;1.67;;
29688;SDS011;16600;47.444;8.334;2022-11-20T18:16:58;2.83;;;1.92;;
29688;SDS011;16600;47.444;8.334;2022-11-20T18:19:25;2.63;;;2.13;;
29688;SDS011;16600;47.444;8.334;2022-11-20T18:21:52;3.47;;;1.80;;
29688;SDS011;16600;47.444;8.334;2022-11-20T18:24:18;5.40;;;2.95;;
29688;SDS011;16600;47.444;8.334;2022-11-20T18:26:44;4.03;;;1.80;;
29688;SDS011;16600;47.444;8.334;2022-11-20T18:29:13;3.67;;;2.10;;
29688;SDS011;16600;47.444;8.334;2022-11-20T18:34:05;4.13;;;2.88;;
29688;SDS011;16600;47.444;8.334;2022-11-20T18:36:36;3.05;;;2.40;;
29688;SDS011;16600;47.444;8.334;2022-11-20T18:39:02;3.35;;;1.83;;
29688;SDS011;16600;47.444;8.334;2022-11-20T18:41:29;5.18;;;2.50;;
29688;SDS011;16600;47.444;8.334;2022-11-20T18:44:15;2.70;;;1.98;;
29688;SDS011;16600;47.444;8.334;2022-11-20T18:47:00;4.30;;;3.17;;
29688;SDS011;16600;47.444;8.334;2022-11-20T18:49:26;9.18;;;3.10;;
29688;SDS011;16600;47.444;8.334;2022-11-20T18:51:53;16.00;;;9.45;;
29688;SDS011;16600;47.444;8.334;2022-11-20T18:54:19;7.80;;;4.95;;